Aeroporto :
LOGIN :

Iscrizione | Disclaimer

   EN    FR    IT 

 










Sommario :    VFR   VFR Marginale   IFR   IFR Intensivo   IFR Molto Intensivo
Visibilità : 
Base nubi : 
>= 8 km
>= 3000ft
5 / 8 km
1000 / 3000 ft
1500m / 5 km
500 / 1000 ft
800 / 1500m
200 / 500 ft
< 800m
< 200 ft
Simboli :   Temporali  Nebbia  Neve Forte  Precipitazioni Forti  Vento > 20 kt
SIGMETs :   Varie  Temporali  Ghiacco  Turbolenza  Onda orograficha  Ceneri Vulcaniche






- Altitudine del aeroporto : 755 ft
- Codice IATA : DRS


EDDC - Dresden Klotzsche

ULTIMO METAR :
  • 151750Z 15007KT 130V190 9999 SCT033 09/06 Q1004 NOSIG

METARs OBSOLETI :
  • 151720Z 15007KT 9999 BKN033 10/06 Q1004 NOSIG
  • 151650Z 15007KT 9999 BKN031 10/06 Q1004 NOSIG
  • 151620Z 11007KT 080V140 9999 BKN033 10/06 Q1003 NOSIG
  • 151550Z 12006KT 9999 SCT030 10/06 Q1003 NOSIG
  • 151520Z 12006KT 9999 SCT033 10/06 Q1003 NOSIG

TAF TAF EDDC
Valido dal 15 a 18 ore il 16 a 18 ore UTC


151700Z 1518/1618 13009KT 9999 BKN045
BECMG 1605/1607 24008KT
BECMG 1614/1616 VRB03KT



MetMap, La meteo Aeronautica in un colpo d'occhio ! - Copyright ORBIFLY Dicembre 2007 - Disclaimer

ORBIFLY MET'MAP TEAM :

Programmazione e sviluppo : Alexandra Zaïnal
Concezione e sviluppo : Baudouin d'Aumeries
Co-Programmazione e sviluppo : Marc-Olivier Méhu
Supporto tecnico e logistico : Manuel Goepfert
Aiuto per la traduzione : Arnaldo La Scala

Contatto : metmap@orbifly.com




FONTI E CREDITI :

   NOAA